This is the latest recevied weather packets stored in our database for station/object SV9TNF-1. If no packets are shown the sender has not sent any weather packets the latest 10 day(s).
| Time | Temp. | Humidity | Pressure | Rain* | Wind** | Luminosity | Snow |
|---|---|---|---|---|---|---|---|
| 1778057725 | 27.22° C | 31% | 1005.8 hPa | 0 mm | 3.13 m/s, 133° | - | - |
| 1778057425 | 26.67° C | 33% | 1005.8 hPa | 0 mm | 4.92 m/s, 124° | - | - |
| 1778057125 | 26.67° C | 33% | 1005.8 hPa | 0 mm | 6.26 m/s, 134° | - | - |
| 1778056825 | 26.67° C | 33% | 1005.8 hPa | 0 mm | 5.36 m/s, 348° | - | - |
| 1778056525 | 25.56° C | 35% | 1005.8 hPa | 0 mm | 1.79 m/s, 129° | - | - |
| 1778056225 | 26.67° C | 34% | 1005.8 hPa | 0 mm | 0 m/s | - | - |
| 1778055925 | 25.56° C | 35% | 1005.8 hPa | 0 mm | 3.58 m/s, 334° | - | - |
| 1778055624 | 25.56° C | 35% | 1005.8 hPa | 0 mm | 2.68 m/s, 318° | - | - |
| 1778055325 | 25° C | 35% | 1005.8 hPa | 0 mm | 7.6 m/s, 329° | - | - |
| 1778055025 | 26.67° C | 34% | 1005.4 hPa | 0 mm | 0.89 m/s, 163° | - | - |
| 1778054724 | 26.11° C | 34% | 1005.4 hPa | 0 mm | 0.45 m/s, 123° | - | - |
| 1778054425 | 25.56° C | 33% | 1005.4 hPa | 0 mm | 2.24 m/s, 74° | - | - |
| 1778054124 | 25° C | 36% | 1005.4 hPa | 0 mm | 4.92 m/s, 110° | - | - |
| 1778053824 | 25° C | 35% | 1005.4 hPa | 0 mm | 1.79 m/s, 79° | - | - |
| 1778053524 | 24.44° C | 33% | 1005.4 hPa | 0 mm | 4.47 m/s, 128° | - | - |
| 1778053224 | 25° C | 32% | 1005.4 hPa | 0 mm | 4.47 m/s, 329° | - | - |
| 1778052924 | 25.56° C | 33% | 1005.4 hPa | 0 mm | 0.89 m/s, 142° | - | - |
| 1778052624 | 24.44° C | 31% | 1005.4 hPa | 0 mm | 2.24 m/s, 126° | - | - |
| 1778052323 | 24.44° C | 31% | 1005.4 hPa | 0 mm | 4.02 m/s, 119° | - | - |
| 1778052024 | 25° C | 30% | 1005.1 hPa | 0 mm | 1.79 m/s, 73° | - | - |
| 1778051724 | 24.44° C | 31% | 1005.1 hPa | 0 mm | 4.92 m/s, 333° | - | - |
| 1778051423 | 24.44° C | 30% | 1005.1 hPa | 0 mm | 8.05 m/s, 330° | - | - |
| 1778051123 | 24.44° C | 29% | 1005.1 hPa | 0 mm | 4.92 m/s, 180° | - | - |
| 1778050823 | 24.44° C | 30% | 1005.1 hPa | 0 mm | 4.02 m/s, 192° | - | - |
| 1778050523 | 23.33° C | 37% | 1004.7 hPa | 0 mm | 1.79 m/s, 120° | - | - |
* Rain latest hour (hover to see other rain measurements)
** Current wind speed in m/s (hover to see current wind gust speed)